CYDP/YDP METAR and TAF weather

Enter ICAO airport designator
Station Type Date Time Source
CYDP METAR 2022/11/26 09:00 UTC NOAA

CYDP 260900Z 20007KT 15SM -SHSN BKN038 OVC080 M06/M08 A2955 RMK SC7AS1 SLP009


Station Type Date Time Source
CYDP Decoded METAR 2022/11/26 09:00 UTC NOAA

Nain, Nfld, Canada (CYDP) 56-33N 061-41W 7M
Nov 26, 2022 - 04:00 AM EST / 2022.11.26 0900 UTC
Wind: from the SSW (200 degrees) at 8 MPH (7 KT):0
Visibility: 15 mile(s):0
Sky conditions: overcast
Weather: light snow showers
Temperature: 21 F (-6 C)
Windchill: 12 F (-11 C):1
Dew Point: 17 F (-8 C)
Relative Humidity: 85%
Pressure (altimeter): 29.55 in. Hg (1000 hPa)
ob: CYDP 260900Z 20007KT 15SM -SHSN BKN038 OVC080 M06/M08 A2955 RMK SC7AS1 SLP009
cycle: 9

Station Type Date Time Source
CYDP TAF 2022/11/25 23:06 UTC NOAA

TAF
AMD TAF
AMD CYDP 252302Z 2523/2524 14010KT P6SM OVC012
TEMPO 2523/2524 FEW012 BKN030
RMK NXT FCST BY 261100Z

Example: see airport list